KBWI/BWI METAR and TAF weather

Enter ICAO airport designator
Station Type Date Time Source
KBWI METAR 2021/04/18 01:54 UTC NOAA

KBWI 180154Z 28004KT 10SM FEW110 SCT200 11/03 A2986 RMK AO2 SLP109 T01110033


Station Type Date Time Source
KBWI Decoded METAR 2021/04/18 01:54 UTC NOAA

BALTIMORE-WASHINGTON INTERNATIONAL , MD, United States (KBWI) 39-10N 076-41W 59M
Apr 17, 2021 - 09:54 PM EDT / 2021.04.18 0154 UTC
Wind: from the W (280 degrees) at 5 MPH (4 KT):0
Visibility: 10 mile(s):0
Sky conditions: partly cloudy
Temperature: 52.0 F (11.1 C)
Dew Point: 37.9 F (3.3 C)
Relative Humidity: 58%
Pressure (altimeter): 29.86 in. Hg (1011 hPa)
ob: KBWI 180154Z 28004KT 10SM FEW110 SCT200 11/03 A2986 RMK AO2 SLP109 T01110033
cycle: 2

Station Type Date Time Source
KBWI TAF 2021/04/18 03:33 UTC NOAA

TAF
AMD KBWI 180231Z 1803/1906 VRB03KT P6SM SCT040 OVC100
FM180500 00000KT P6SM FEW050 SCT130
FM181400 32004KT P6SM FEW200 FEW250
FM181600 29005KT P6SM FEW140 FEW250
FM190000 00000KT P6SM FEW050 SCT140
FM190300 00000KT P6SM SCT100 BKN130

Example: see airport list